Time;durP1;ratioP1;P1;durP2;ratioP2;P2;SDS_P1;SDS_P2;PMS_P1;PMS_P2;Temp;Humidity;BMP_temperature;BMP_pressure;BME280_temperature;BME280_humidity;BME280_pressure;Samples;Min_cycle;Max_cycle;Signal;HPM_P1;HPM_P2
2023/07/12 00:00:48;;;;;;;1999.90;999.90;;;22.20;99.90;;;;;;4998287;28;20912;-69
2023/07/12 00:03:14;;;;;;;1999.90;999.90;;;22.10;99.90;;;;;;4995598;28;20474;-69
2023/07/12 00:05:41;;;;;;;1999.90;999.90;;;22.10;99.90;;;;;;4998261;28;20419;-68
2023/07/12 00:08:23;;;;;;;1999.90;999.90;;;22.20;99.90;;;;;;4999090;28;20413;-69
2023/07/12 00:10:50;;;;;;;1999.90;999.90;;;22.30;99.90;;;;;;5000673;28;20433;-68
2023/07/12 00:13:17;;;;;;;1999.90;999.90;;;22.30;99.90;;;;;;4995312;28;20853;-69
2023/07/12 00:15:44;;;;;;;1999.90;999.90;;;22.20;99.90;;;;;;4995654;28;20387;-68
2023/07/12 00:18:28;;;;;;;1999.90;999.90;;;22.20;99.90;;;;;;4995333;28;20511;-69
2023/07/12 00:20:53;;;;;;;1999.90;999.90;;;22.20;99.90;;;;;;5001238;28;20459;-68
2023/07/12 00:23:20;;;;;;;1999.90;999.90;;;22.30;99.90;;;;;;5005258;28;21017;-69
2023/07/12 00:25:48;;;;;;;1999.90;999.90;;;22.30;99.90;;;;;;4996442;28;20216;-68
2023/07/12 00:28:21;;;;;;;1999.90;999.90;;;22.40;99.90;;;;;;4995447;28;20417;-69
2023/07/12 00:30:48;;;;;;;1999.90;999.90;;;22.30;99.90;;;;;;4995319;28;20432;-68
2023/07/12 00:33:13;;;;;;;1999.90;999.90;;;22.30;99.90;;;;;;4994999;28;20471;-69
2023/07/12 00:35:42;;;;;;;1999.90;999.90;;;22.30;99.90;;;;;;4995279;28;20424;-69
2023/07/12 00:38:33;;;;;;;1999.90;999.90;;;22.30;99.90;;;;;;4999543;28;20233;-68
2023/07/12 00:41:26;;;;;;;1999.90;999.90;;;22.20;99.90;;;;;;5009675;28;20461;-68
2023/07/12 00:44:29;;;;;;;1999.90;999.90;;;22.30;99.90;;;;;;4999482;28;20511;-68
2023/07/12 00:46:57;;;;;;;1999.90;999.90;;;22.20;99.90;;;;;;5007724;28;20435;-69
2023/07/12 00:49:23;;;;;;;1999.90;999.90;;;22.30;99.90;;;;;;5008350;28;20421;-69
2023/07/12 00:52:05;;;;;;;1999.90;999.90;;;22.20;99.90;;;;;;5010265;28;20472;-69
2023/07/12 00:54:54;;;;;;;1999.90;999.90;;;22.20;99.90;;;;;;5010742;28;20400;-69
2023/07/12 00:57:22;;;;;;;1999.90;999.90;;;22.20;99.90;;;;;;5010602;28;20396;-67
2023/07/12 00:59:51;;;;;;;1999.90;999.90;;;22.10;99.90;;;;;;5012116;28;20447;-68
2023/07/12 01:02:16;;;;;;;1999.90;999.90;;;22.10;99.90;;;;;;5011564;28;20458;-68
2023/07/12 01:04:48;;;;;;;1999.90;999.90;;;22.10;99.90;;;;;;5012503;28;20423;-69
2023/07/12 01:07:15;;;;;;;1999.90;999.90;;;22.10;99.90;;;;;;5010828;28;20402;-68
2023/07/12 01:09:41;;;;;;;1999.90;999.90;;;22.10;99.90;;;;;;5009590;28;20471;-68
2023/07/12 01:12:07;;;;;;;1999.90;999.90;;;22.10;99.90;;;;;;5011493;28;20434;-68
2023/07/12 01:14:32;;;;;;;1999.90;999.90;;;22.10;99.90;;;;;;5005931;28;20189;-69
2023/07/12 01:17:05;;;;;;;1999.90;999.90;;;21.80;99.90;;;;;;4990430;28;20395;-68
2023/07/12 01:19:31;;;;;;;1999.90;999.90;;;21.90;99.90;;;;;;4988874;28;20228;-68
2023/07/12 01:21:57;;;;;;;1999.90;999.90;;;21.90;99.90;;;;;;5009459;28;20448;-68
2023/07/12 01:24:25;;;;;;;1999.90;999.90;;;21.90;99.90;;;;;;5012869;28;20990;-69
2023/07/12 01:26:53;;;;;;;1999.90;999.90;;;21.90;99.90;;;;;;5003894;28;20527;-69
2023/07/12 01:29:20;;;;;;;1999.90;999.90;;;21.90;99.90;;;;;;5006479;28;20450;-69
2023/07/12 01:31:46;;;;;;;1999.90;999.90;;;21.90;99.90;;;;;;5006828;28;20800;-69
2023/07/12 01:34:14;;;;;;;1999.90;999.90;;;22.00;99.90;;;;;;5014504;28;20455;-68
2023/07/12 01:36:40;;;;;;;1999.90;999.90;;;21.90;99.90;;;;;;5014901;28;20451;-69
2023/07/12 01:39:06;;;;;;;1999.90;999.90;;;21.90;99.90;;;;;;5012444;28;20463;-69
2023/07/12 01:41:32;;;;;;;1999.90;999.90;;;21.90;99.90;;;;;;5010621;28;20605;-69
2023/07/12 01:43:58;;;;;;;1999.90;999.90;;;21.90;99.90;;;;;;5003525;28;20464;-69
2023/07/12 01:46:25;;;;;;;1999.90;999.90;;;21.80;99.90;;;;;;4994163;28;20415;-69
2023/07/12 01:48:50;;;;;;;1999.90;999.90;;;21.70;99.90;;;;;;4993895;28;20506;-69
2023/07/12 01:51:18;;;;;;;1999.90;999.90;;;21.70;99.90;;;;;;4993619;28;20470;-68
2023/07/12 01:53:44;;;;;;;1999.90;999.90;;;21.60;99.90;;;;;;4992403;28;20263;-69
2023/07/12 01:56:11;;;;;;;1999.90;999.90;;;21.60;99.90;;;;;;4993702;28;20443;-68
2023/07/12 01:58:37;;;;;;;1999.90;999.90;;;21.50;99.90;;;;;;4992981;28;20508;-69
2023/07/12 02:01:03;;;;;;;1999.90;999.90;;;21.40;99.90;;;;;;4993126;28;20970;-69
2023/07/12 02:03:29;;;;;;;1999.90;999.90;;;21.40;99.90;;;;;;4993484;28;20208;-69
2023/07/12 02:05:55;;;;;;;1999.90;999.90;;;21.40;99.90;;;;;;4993344;28;20181;-69
2023/07/12 02:08:21;;;;;;;1999.90;999.90;;;21.40;99.90;;;;;;4993312;28;20431;-69
2023/07/12 02:10:47;;;;;;;1999.90;999.90;;;21.50;99.90;;;;;;4993226;28;20413;-69
2023/07/12 02:13:13;;;;;;;1999.90;999.90;;;21.40;99.90;;;;;;4993121;28;20424;-69
2023/07/12 02:15:39;;;;;;;1999.90;999.90;;;21.40;99.90;;;;;;4993420;28;20410;-69
2023/07/12 02:18:05;;;;;;;1999.90;999.90;;;21.40;99.90;;;;;;4993443;28;20177;-68
2023/07/12 02:20:31;;;;;;;1999.90;999.90;;;21.40;99.90;;;;;;4995453;28;20192;-69
2023/07/12 02:22:57;;;;;;;1999.90;999.90;;;21.40;99.90;;;;;;4993280;28;21009;-69
2023/07/12 02:25:23;;;;;;;1999.90;999.90;;;21.40;99.90;;;;;;4993228;28;20177;-69
2023/07/12 02:27:50;;;;;;;1999.90;999.90;;;21.40;99.90;;;;;;4993184;28;20175;-69
2023/07/12 02:30:27;;;;;;;1999.90;999.90;;;21.40;99.90;;;;;;4995273;28;20435;-69
2023/07/12 02:32:54;;;;;;;1999.90;999.90;;;21.40;99.90;;;;;;4992578;28;20415;-69
2023/07/12 02:35:21;;;;;;;1999.90;999.90;;;21.40;99.90;;;;;;4993169;28;20961;-69
2023/07/12 02:37:47;;;;;;;1999.90;999.90;;;21.40;99.90;;;;;;4997346;28;20794;-69
2023/07/12 02:40:14;;;;;;;1999.90;999.90;;;21.30;99.90;;;;;;4994627;28;20466;-69
2023/07/12 02:42:40;;;;;;;1999.90;999.90;;;21.30;99.90;;;;;;4992549;28;20818;-68
2023/07/12 02:45:07;;;;;;;1999.90;999.90;;;21.30;99.90;;;;;;4992685;28;20421;-69
2023/07/12 02:47:33;;;;;;;1999.90;999.90;;;21.30;99.90;;;;;;4992987;28;20912;-68
2023/07/12 02:49:59;;;;;;;1999.90;999.90;;;21.20;99.90;;;;;;4992707;28;20903;-69
2023/07/12 02:52:24;;;;;;;1999.90;999.90;;;21.10;99.90;;;;;;4992955;28;20482;-69
2023/07/12 02:54:50;;;;;;;1999.90;999.90;;;21.00;99.90;;;;;;4992859;28;20752;-69
2023/07/12 02:57:16;;;;;;;1999.90;999.90;;;20.90;99.90;;;;;;4992730;28;20180;-69
2023/07/12 02:59:42;;;;;;;1999.90;999.90;;;20.70;99.90;;;;;;4992861;28;20170;-68
2023/07/12 03:02:11;;;;;;;1999.90;999.90;;;20.50;99.90;;;;;;4992352;28;20558;-68
2023/07/12 03:04:37;;;;;;;1999.90;999.90;;;20.40;99.90;;;;;;4992963;28;20748;-68
2023/07/12 03:07:03;;;;;;;1999.90;999.90;;;20.20;99.90;;;;;;4992287;28;20382;-68
2023/07/12 03:09:29;;;;;;;1999.90;999.90;;;19.90;99.90;;;;;;4992533;28;20500;-68
2023/07/12 03:11:54;;;;;;;1999.90;999.90;;;19.70;99.90;;;;;;4997805;28;20562;-68
2023/07/12 03:14:21;;;;;;;1999.90;999.90;;;19.60;99.90;;;;;;4995972;28;20408;-69
2023/07/12 03:16:47;;;;;;;1999.90;999.90;;;19.50;99.90;;;;;;4995976;28;20173;-69
2023/07/12 03:19:14;;;;;;;1999.90;999.90;;;19.40;99.90;;;;;;4995975;28;20771;-69
2023/07/12 03:21:40;;;;;;;1999.90;999.90;;;19.30;99.90;;;;;;4995506;28;20204;-68
2023/07/12 03:24:06;;;;;;;1999.90;999.90;;;19.10;99.90;;;;;;4997589;28;20563;-69
2023/07/12 03:26:33;;;;;;;1999.90;999.90;;;19.10;99.90;;;;;;4995619;28;20427;-70
2023/07/12 03:28:58;;;;;;;1999.90;999.90;;;19.10;99.90;;;;;;4995727;28;20822;-69
2023/07/12 03:31:26;;;;;;;1999.90;999.90;;;19.10;99.90;;;;;;4997672;28;20440;-69
2023/07/12 03:33:52;;;;;;;1999.90;999.90;;;19.10;99.90;;;;;;4995657;28;20197;-69
2023/07/12 03:36:19;;;;;;;1999.90;999.90;;;19.10;99.90;;;;;;4995763;28;20969;-68
2023/07/12 03:38:45;;;;;;;1999.90;999.90;;;19.20;99.90;;;;;;4995864;28;20460;-69
2023/07/12 03:41:15;;;;;;;1999.90;999.90;;;19.20;99.90;;;;;;4995007;28;20543;-69
2023/07/12 03:43:40;;;;;;;1999.90;999.90;;;19.30;99.90;;;;;;4995572;28;20218;-69
2023/07/12 03:46:07;;;;;;;1999.90;999.90;;;19.30;99.90;;;;;;5003394;28;20416;-69
2023/07/12 03:48:33;;;;;;;1999.90;999.90;;;19.30;99.90;;;;;;4987503;28;20653;-70
2023/07/12 03:50:59;;;;;;;1999.90;999.90;;;19.30;99.90;;;;;;4995093;28;20792;-69
2023/07/12 03:53:26;;;;;;;1999.90;999.90;;;19.30;99.90;;;;;;5001878;28;20767;-69
2023/07/12 03:55:53;;;;;;;1999.90;999.90;;;19.30;99.90;;;;;;4996483;28;20790;-69
2023/07/12 03:58:27;;;;;;;1999.90;999.90;;;19.30;99.90;;;;;;4995285;28;20428;-69
2023/07/12 04:00:52;;;;;;;1999.90;999.90;;;19.30;99.90;;;;;;4997385;28;20445;-69
2023/07/12 04:03:19;;;;;;;1999.90;999.90;;;19.30;99.90;;;;;;4995046;28;20445;-69
2023/07/12 04:05:49;;;;;;;1999.90;999.90;;;19.30;99.90;;;;;;4995111;28;20182;-69
2023/07/12 04:08:15;;;;;;;1999.90;999.90;;;19.30;99.90;;;;;;4995036;28;20490;-69
2023/07/12 04:10:41;;;;;;;1999.90;999.90;;;19.30;99.90;;;;;;4997061;28;20941;-69
2023/07/12 04:13:06;;;;;;;1999.90;999.90;;;19.30;99.90;;;;;;4994671;28;20179;-69
2023/07/12 04:15:34;;;;;;;1999.90;999.90;;;19.30;99.90;;;;;;4995067;28;20643;-69
2023/07/12 04:18:00;;;;;;;1999.90;999.90;;;19.30;99.90;;;;;;4994882;28;20907;-69
2023/07/12 04:20:25;;;;;;;1999.90;999.90;;;19.30;99.90;;;;;;4999336;28;20447;-69
2023/07/12 04:22:52;;;;;;;1999.90;999.90;;;19.30;99.90;;;;;;4995302;28;20668;-69
2023/07/12 04:25:18;;;;;;;1999.90;999.90;;;19.30;99.90;;;;;;4994654;28;20174;-69
2023/07/12 04:27:44;;;;;;;1999.90;999.90;;;19.30;99.90;;;;;;4994844;28;20451;-69
2023/07/12 04:30:15;;;;;;;1999.90;999.90;;;19.40;99.90;;;;;;4997091;28;20406;-70
2023/07/12 04:32:41;;;;;;;1999.90;999.90;;;19.30;99.90;;;;;;4994332;28;20408;-69
2023/07/12 04:35:07;;;;;;;1999.90;999.90;;;19.40;99.90;;;;;;4994674;28;20804;-69
2023/07/12 04:37:33;;;;;;;1999.90;999.90;;;19.40;99.90;;;;;;4994540;28;20170;-69
2023/07/12 04:39:59;;;;;;;1999.90;999.90;;;19.40;99.90;;;;;;4998336;28;20940;-69
2023/07/12 04:42:25;;;;;;;1999.90;999.90;;;19.40;99.90;;;;;;4994984;28;20476;-68
2023/07/12 04:44:50;;;;;;;1999.90;999.90;;;19.30;99.90;;;;;;4994338;28;20501;-69
2023/07/12 04:47:17;;;;;;;1999.90;999.90;;;19.30;99.90;;;;;;4994391;28;20177;-69
2023/07/12 04:49:45;;;;;;;1999.90;999.90;;;19.30;99.90;;;;;;4994367;28;20544;-69
2023/07/12 04:52:11;;;;;;;1999.90;999.90;;;19.30;99.90;;;;;;4993951;28;20444;-69
2023/07/12 04:54:40;;;;;;;1999.90;999.90;;;19.30;99.90;;;;;;4995065;28;20404;-69
2023/07/12 04:57:06;;;;;;;1999.90;999.90;;;19.30;99.90;;;;;;4994864;28;20408;-68
2023/07/12 04:59:33;;;;;;;1999.90;999.90;;;19.40;99.90;;;;;;4996354;28;20418;-68
2023/07/12 05:01:58;;;;;;;1999.90;999.90;;;19.40;99.90;;;;;;5006517;28;20409;-69
2023/07/12 05:04:24;;;;;;;1999.90;999.90;;;19.30;99.90;;;;;;4994062;28;20467;-69
2023/07/12 05:06:51;;;;;;;1999.90;999.90;;;19.40;99.90;;;;;;4994474;28;20257;-69
2023/07/12 05:09:17;;;;;;;1999.90;999.90;;;19.40;99.90;;;;;;4994561;28;20288;-69
2023/07/12 05:11:43;;;;;;;1999.90;999.90;;;19.30;99.90;;;;;;4994022;28;20959;-68
2023/07/12 05:14:08;;;;;;;1999.90;999.90;;;19.40;99.90;;;;;;4994161;28;20204;-68
2023/07/12 05:16:34;;;;;;;1999.90;999.90;;;19.40;99.90;;;;;;4994229;28;20237;-69
2023/07/12 05:18:59;;;;;;;1999.90;999.90;;;19.40;99.90;;;;;;4994112;28;20594;-69
2023/07/12 05:21:25;;;;;;;1999.90;999.90;;;19.30;99.90;;;;;;4993814;28;20207;-68
2023/07/12 05:23:51;;;;;;;1999.90;999.90;;;19.30;99.90;;;;;;4993469;28;20214;-69
2023/07/12 05:26:16;;;;;;;1999.90;999.90;;;19.30;99.90;;;;;;4993830;28;20748;-69
2023/07/12 05:28:42;;;;;;;1999.90;999.90;;;19.30;99.90;;;;;;4993829;28;20419;-69
2023/07/12 05:31:10;;;;;;;1999.90;999.90;;;19.30;99.90;;;;;;4993669;28;20236;-68
2023/07/12 05:33:36;;;;;;;1999.90;999.90;;;19.30;99.90;;;;;;4992986;28;20203;-69
2023/07/12 05:36:03;;;;;;;1999.90;999.90;;;19.20;99.90;;;;;;4993779;28;20495;-68
2023/07/12 05:38:29;;;;;;;1999.90;999.90;;;19.10;99.90;;;;;;4993930;28;20175;-68
2023/07/12 05:40:57;;;;;;;1999.90;999.90;;;19.10;99.90;;;;;;5000118;28;20457;-69
2023/07/12 05:43:24;;;;;;;1999.90;999.90;;;19.10;99.90;;;;;;5010936;28;20457;-69
2023/07/12 05:45:51;;;;;;;1999.90;999.90;;;19.10;99.90;;;;;;4993625;28;20405;-69
2023/07/12 05:48:16;;;;;;;1999.90;999.90;;;19.10;99.90;;;;;;4993374;28;20412;-69
2023/07/12 05:50:42;;;;;;;1999.90;999.90;;;19.00;99.90;;;;;;4993085;28;20917;-68
2023/07/12 05:53:08;;;;;;;1999.90;999.90;;;19.00;99.90;;;;;;4993201;28;20170;-69
2023/07/12 05:55:34;;;;;;;1999.90;999.90;;;19.10;99.90;;;;;;4995847;28;20194;-69
2023/07/12 05:58:00;;;;;;;1999.90;999.90;;;19.20;99.90;;;;;;4995181;28;20767;-69
2023/07/12 06:00:25;;;;;;;1999.90;999.90;;;19.30;99.90;;;;;;4993373;28;20430;-69
2023/07/12 06:02:51;;;;;;;1999.90;999.90;;;19.30;99.90;;;;;;4993475;28;20283;-69
2023/07/12 06:05:18;;;;;;;1999.90;999.90;;;19.30;99.90;;;;;;4993147;28;20624;-69
2023/07/12 06:07:44;;;;;;;1999.90;999.90;;;19.30;99.90;;;;;;4993060;28;20820;-69
2023/07/12 06:10:10;;;;;;;1999.90;999.90;;;19.40;99.90;;;;;;4992681;28;20423;-69
2023/07/12 06:12:35;;;;;;;1999.90;999.90;;;19.40;99.90;;;;;;4992982;28;20932;-68
2023/07/12 06:15:02;;;;;;;1999.90;999.90;;;19.40;99.90;;;;;;4995240;28;20165;-69
2023/07/12 06:17:29;;;;;;;1999.90;999.90;;;19.40;99.90;;;;;;4993109;28;20191;-69
2023/07/12 06:19:54;;;;;;;1999.90;999.90;;;19.50;99.90;;;;;;4993263;28;20602;-68
2023/07/12 06:22:20;;;;;;;1999.90;999.90;;;19.50;99.90;;;;;;4992655;28;20536;-68
2023/07/12 06:24:46;;;;;;;1999.90;999.90;;;19.60;99.90;;;;;;4993110;28;20227;-69
2023/07/12 06:27:13;;;;;;;1999.90;999.90;;;19.50;99.90;;;;;;4993195;28;20181;-69
2023/07/12 06:29:40;;;;;;;1999.90;999.90;;;19.60;99.90;;;;;;4993154;28;20420;-68
2023/07/12 06:32:06;;;;;;;1999.90;999.90;;;19.60;99.90;;;;;;4995283;28;20498;-69
2023/07/12 06:34:31;;;;;;;1999.90;999.90;;;19.60;99.90;;;;;;5001836;28;20419;-68
2023/07/12 06:36:57;;;;;;;1999.90;999.90;;;19.40;99.90;;;;;;5000904;28;20443;-69
2023/07/12 06:39:22;;;;;;;1999.90;999.90;;;19.50;99.90;;;;;;4993107;28;20176;-69
2023/07/12 06:41:49;;;;;;;1999.90;999.90;;;19.50;99.90;;;;;;4994314;28;20212;-68
2023/07/12 06:44:15;;;;;;;1999.90;999.90;;;19.50;99.90;;;;;;4994630;28;20205;-69
2023/07/12 06:46:40;;;;;;;1999.90;999.90;;;19.60;99.90;;;;;;4997542;28;20413;-69
2023/07/12 06:49:06;;;;;;;1999.90;999.90;;;19.60;99.90;;;;;;4999451;28;20252;-69
2023/07/12 06:51:31;;;;;;;1999.90;999.90;;;19.60;99.90;;;;;;4996940;28;20190;-69
2023/07/12 06:53:57;;;;;;;1999.90;999.90;;;19.60;99.90;;;;;;4997142;28;20178;-69
2023/07/12 06:56:23;;;;;;;1999.90;999.90;;;19.60;99.90;;;;;;4996338;28;20171;-68
2023/07/12 06:58:48;;;;;;;1999.90;999.90;;;19.50;99.90;;;;;;4997686;28;20518;-68
2023/07/12 07:01:14;;;;;;;1999.90;999.90;;;19.60;99.90;;;;;;4998057;28;20228;-68
2023/07/12 07:03:40;;;;;;;1999.90;999.90;;;19.60;99.90;;;;;;4997990;28;20215;-68
2023/07/12 07:06:06;;;;;;;1999.90;999.90;;;19.50;99.90;;;;;;5003776;28;20416;-69
2023/07/12 07:08:31;;;;;;;1999.90;999.90;;;19.60;99.90;;;;;;4996152;28;20184;-69
2023/07/12 07:10:57;;;;;;;1999.90;999.90;;;19.60;99.90;;;;;;4997780;28;20225;-69
2023/07/12 07:13:24;;;;;;;1999.90;999.90;;;19.60;99.90;;;;;;4995712;28;20990;-69
2023/07/12 07:15:51;;;;;;;1999.90;999.90;;;19.70;99.90;;;;;;4995906;28;20170;-69
2023/07/12 07:18:16;;;;;;;1999.90;999.90;;;19.70;99.90;;;;;;4995454;28;20576;-69
2023/07/12 07:20:43;;;;;;;1999.90;999.90;;;19.70;99.90;;;;;;4998124;28;20473;-69
2023/07/12 07:23:09;;;;;;;1999.90;999.90;;;19.80;99.90;;;;;;4997875;28;20237;-69
2023/07/12 07:25:35;;;;;;;1999.90;999.90;;;19.70;99.90;;;;;;5001118;28;20415;-68
2023/07/12 07:28:01;;;;;;;1999.90;999.90;;;19.70;99.90;;;;;;5002269;28;20412;-69
2023/07/12 07:30:27;;;;;;;1999.90;999.90;;;19.70;99.90;;;;;;4997853;28;20240;-69
2023/07/12 07:32:54;;;;;;;1999.90;999.90;;;19.70;99.90;;;;;;4995263;28;20183;-69
2023/07/12 07:35:21;;;;;;;1999.90;999.90;;;19.70;99.90;;;;;;4996908;28;20499;-69
2023/07/12 07:37:48;;;;;;;1999.90;999.90;;;19.90;99.90;;;;;;4990426;28;20431;-69
2023/07/12 07:40:14;;;;;;;1999.90;999.90;;;20.10;99.90;;;;;;4994813;28;20506;-69
2023/07/12 07:42:40;;;;;;;1999.90;999.90;;;20.10;99.90;;;;;;4994683;28;20458;-69
2023/07/12 07:45:09;;;;;;;1999.90;999.90;;;20.00;99.90;;;;;;4994543;28;20459;-69
2023/07/12 07:47:35;;;;;;;1999.90;999.90;;;20.00;99.90;;;;;;4995365;28;20462;-69
2023/07/12 07:50:01;;;;;;;1999.90;999.90;;;19.90;99.90;;;;;;4994724;28;20435;-69
2023/07/12 07:52:26;;;;;;;1999.90;999.90;;;19.80;99.90;;;;;;4994038;28;20412;-69
2023/07/12 07:54:53;;;;;;;1999.90;999.90;;;20.00;99.90;;;;;;4994081;28;20633;-69
2023/07/12 07:57:18;;;;;;;1999.90;999.90;;;20.10;99.90;;;;;;4994533;28;20173;-68
2023/07/12 07:59:44;;;;;;;1999.90;999.90;;;20.20;99.90;;;;;;4994390;28;20413;-69
2023/07/12 08:02:10;;;;;;;1999.90;999.90;;;20.20;99.90;;;;;;4995527;28;20719;-69
2023/07/12 08:04:37;;;;;;;1999.90;999.90;;;20.10;99.90;;;;;;5002326;28;20188;-69
2023/07/12 08:07:04;;;;;;;1999.90;999.90;;;20.00;99.90;;;;;;4997958;28;20414;-69
2023/07/12 08:09:29;;;;;;;1999.90;999.90;;;20.00;99.90;;;;;;4989510;28;21187;-68
2023/07/12 08:11:55;;;;;;;1999.90;999.90;;;20.00;99.90;;;;;;4989175;28;20455;-67
2023/07/12 08:14:21;;;;;;;1999.90;999.90;;;19.90;99.90;;;;;;4991570;28;20181;-68
2023/07/12 08:16:48;;;;;;;1999.90;999.90;;;19.90;99.90;;;;;;4994619;28;20208;-68
2023/07/12 08:19:14;;;;;;;1999.90;999.90;;;20.00;99.90;;;;;;4990017;28;20189;-69
2023/07/12 08:21:40;;;;;;;1999.90;999.90;;;20.20;99.90;;;;;;4989982;28;20494;-68
2023/07/12 08:24:05;;;;;;;1999.90;999.90;;;20.30;99.90;;;;;;4989847;28;20462;-67
2023/07/12 08:26:31;;;;;;;1999.90;999.90;;;20.40;99.90;;;;;;4990686;28;20182;-69
2023/07/12 08:28:57;;;;;;;1999.90;999.90;;;20.50;99.90;;;;;;4994108;28;20752;-67
2023/07/12 08:31:22;;;;;;;1999.90;999.90;;;20.60;99.90;;;;;;4990805;28;20196;-68
2023/07/12 08:33:49;;;;;;;1999.90;999.90;;;20.60;99.90;;;;;;4990610;28;20185;-66
2023/07/12 08:36:16;;;;;;;1999.90;999.90;;;20.50;99.90;;;;;;4989509;28;20184;-67
2023/07/12 08:38:41;;;;;;;1999.90;999.90;;;20.30;99.90;;;;;;4989649;28;20425;-68
2023/07/12 08:41:18;;;;;;;1999.90;999.90;;;20.40;99.90;;;;;;4989641;28;20463;-67
2023/07/12 08:43:44;;;;;;;1999.90;999.90;;;20.50;99.90;;;;;;4989342;28;20285;-68
2023/07/12 08:46:31;;;;;;;1999.90;999.90;;;20.60;99.90;;;;;;4989363;28;20421;-68
2023/07/12 08:49:01;;;;;;;1999.90;999.90;;;20.70;99.90;;;;;;4990175;28;20414;-67
2023/07/12 08:51:29;;;;;;;1999.90;999.90;;;20.90;99.90;;;;;;4988485;28;20443;-67
2023/07/12 08:53:55;;;;;;;1999.90;999.90;;;21.00;99.90;;;;;;4989355;28;20450;-68
2023/07/12 08:56:22;;;;;;;1999.90;999.90;;;21.00;99.90;;;;;;4996850;28;20538;-68
2023/07/12 08:58:50;;;;;;;1999.90;999.90;;;21.10;99.90;;;;;;4988939;28;20401;-68
2023/07/12 09:01:36;;;;;;;1999.90;999.90;;;21.10;99.90;;;;;;4988680;28;20513;-66
2023/07/12 09:04:23;;;;;;;1999.90;999.90;;;21.10;99.90;;;;;;4989164;28;20816;-67
2023/07/12 09:06:59;;;;;;;1999.90;999.90;;;21.30;99.90;;;;;;4990185;28;20511;-71
2023/07/12 09:09:27;;;;;;;1999.90;999.90;;;21.30;99.90;;;;;;4989744;28;20792;-69
2023/07/12 09:11:53;;;;;;;1999.90;999.90;;;21.40;99.90;;;;;;4988259;28;20426;-70
2023/07/12 09:14:22;;;;;;;1999.90;999.90;;;21.40;99.90;;;;;;4989206;28;20425;-69
2023/07/12 09:16:50;;;;;;;1999.90;999.90;;;21.50;99.90;;;;;;4989895;28;20437;-68
2023/07/12 09:19:23;;;;;;;1999.90;999.90;;;21.60;99.90;;;;;;4988762;28;20493;-70
2023/07/12 09:21:53;;;;;;;1999.90;999.90;;;21.40;99.90;;;;;;4988573;28;20463;-70
2023/07/12 09:24:27;;;;;;;1999.90;999.90;;;21.40;99.90;;;;;;4986254;28;20972;-70
2023/07/12 09:27:03;;;;;;;1999.90;999.90;;;21.60;99.90;;;;;;4988530;28;20418;-69
2023/07/12 09:29:31;;;;;;;1999.90;999.90;;;21.70;99.90;;;;;;4988908;28;20427;-70
2023/07/12 09:32:01;;;;;;;1999.90;999.90;;;21.80;99.90;;;;;;4989279;28;20437;-70
2023/07/12 09:34:40;;;;;;;1999.90;999.90;;;21.80;99.90;;;;;;4988391;28;20452;-71
2023/07/12 09:37:18;;;;;;;1999.90;999.90;;;21.50;99.90;;;;;;4988835;28;20423;-70
2023/07/12 09:39:55;;;;;;;1999.90;999.90;;;21.50;99.90;;;;;;4988487;28;20451;-70
2023/07/12 09:42:21;;;;;;;1999.90;999.90;;;21.60;99.90;;;;;;4986444;28;20435;-71
2023/07/12 09:44:48;;;;;;;1999.90;999.90;;;21.90;99.90;;;;;;4988382;28;20417;-70
2023/07/12 09:47:27;;;;;;;1999.90;999.90;;;22.10;99.90;;;;;;4989164;28;20482;-72
2023/07/12 09:50:10;;;;;;;1999.90;999.90;;;22.40;99.90;;;;;;4987150;28;20420;-72
2023/07/12 09:52:45;;;;;;;1999.90;999.90;;;22.40;99.90;;;;;;4971328;28;20449;-71
2023/07/12 09:55:22;;;;;;;1999.90;999.90;;;22.10;99.90;;;;;;4973068;28;20390;-72
2023/07/12 09:58:13;;;;;;;1999.90;999.90;;;21.90;99.90;;;;;;4988064;28;20899;-72
2023/07/12 10:01:02;;;;;;;1999.90;999.90;;;21.90;99.90;;;;;;4988176;28;20438;-71
2023/07/12 10:03:50;;;;;;;1999.90;999.90;;;22.10;99.90;;;;;;4985339;28;20825;-70
2023/07/12 10:06:16;;;;;;;1999.90;999.90;;;22.40;99.90;;;;;;4985430;28;20476;-70
2023/07/12 10:09:04;;;;;;;1999.90;999.90;;;22.60;99.90;;;;;;4982641;28;20896;-71
2023/07/12 10:11:39;;;;;;;1999.90;999.90;;;22.90;99.90;;;;;;4977978;28;20282;-70
2023/07/12 10:14:09;;;;;;;1999.90;999.90;;;22.90;99.90;;;;;;4988137;28;20383;-70
2023/07/12 10:16:45;;;;;;;1999.90;999.90;;;22.90;99.90;;;;;;4988241;28;20426;-71
2023/07/12 10:19:44;;;;;;;1999.90;999.90;;;22.70;99.90;;;;;;4987564;28;20968;-70
2023/07/12 10:22:22;;;;;;;1999.90;999.90;;;22.80;99.90;;;;;;4971929;28;20451;-70
2023/07/12 10:24:52;;;;;;;1999.90;999.90;;;22.90;99.90;;;;;;4988074;28;20404;-70
2023/07/12 10:27:22;;;;;;;1999.90;999.90;;;22.80;99.90;;;;;;4987108;28;20428;-70
2023/07/12 10:29:57;;;;;;;1999.90;999.90;;;22.70;99.90;;;;;;4987337;28;20507;-72
2023/07/12 10:32:35;;;;;;;1999.90;999.90;;;22.50;99.90;;;;;;4987761;28;20416;-72
2023/07/12 10:35:21;;;;;;;1999.90;999.90;;;22.50;99.90;;;;;;4982656;28;20441;-71
2023/07/12 10:38:03;;;;;;;1999.90;999.90;;;22.60;99.90;;;;;;4967934;28;20416;-70
2023/07/12 10:40:38;;;;;;;1999.90;999.90;;;22.80;99.90;;;;;;4968512;28;20480;-69
2023/07/12 10:43:11;;;;;;;1999.90;999.90;;;23.00;99.90;;;;;;4968181;28;20457;-70
2023/07/12 10:45:38;;;;;;;1999.90;999.90;;;23.10;99.90;;;;;;4984663;28;20463;-69
2023/07/12 10:48:07;;;;;;;1999.90;999.90;;;23.20;96.80;;;;;;4994807;28;20411;-72
2023/07/12 10:50:48;;;;;;;1999.90;999.90;;;23.40;96.50;;;;;;4988256;28;20981;-70
2023/07/12 10:53:26;;;;;;;1999.90;999.90;;;23.60;96.50;;;;;;4988374;28;20446;-69
2023/07/12 10:56:10;;;;;;;1999.90;999.90;;;23.70;90.20;;;;;;4988208;28;20848;-69
2023/07/12 10:58:51;;;;;;;1999.90;999.90;;;23.90;91.70;;;;;;4987979;28;20422;-70
2023/07/12 11:01:49;;;;;;;1999.90;999.90;;;24.30;92.10;;;;;;4987555;28;20523;-70
2023/07/12 11:04:43;;;;;;;1999.90;999.90;;;24.60;91.10;;;;;;4988047;28;20452;-69
2023/07/12 11:07:12;;;;;;;1999.90;999.90;;;24.30;88.40;;;;;;4987903;28;20430;-70
2023/07/12 11:09:45;;;;;;;1999.90;999.90;;;24.10;85.00;;;;;;4987856;28;20395;-70
2023/07/12 11:12:35;;;;;;;1999.90;999.90;;;24.10;81.20;;;;;;4987730;28;20403;-70
2023/07/12 11:15:16;;;;;;;1999.90;999.90;;;23.80;82.90;;;;;;4984450;28;20433;-69
2023/07/12 11:17:48;;;;;;;1999.90;999.90;;;23.80;86.30;;;;;;4988229;28;20396;-70
2023/07/12 11:20:28;;;;;;;1999.90;999.90;;;24.00;82.90;;;;;;4987716;28;20433;-70
2023/07/12 11:23:00;;;;;;;1999.90;999.90;;;24.10;76.70;;;;;;4987754;28;20434;-70
2023/07/12 11:25:38;;;;;;;1999.90;999.90;;;24.20;78.50;;;;;;4987521;28;20427;-70
2023/07/12 11:28:28;;;;;;;1999.90;999.90;;;24.40;65.00;;;;;;4987826;28;20428;-70
2023/07/12 11:31:11;;;;;;;1999.90;999.90;;;24.60;72.10;;;;;;4989314;28;20403;-69
2023/07/12 11:33:37;;;;;;;1999.90;999.90;;;24.60;65.60;;;;;;4991309;28;20413;-70
2023/07/12 11:36:13;;;;;;;1999.90;999.90;;;25.00;65.60;;;;;;4991958;28;20607;-70
2023/07/12 11:38:43;;;;;;;1999.90;999.90;;;25.10;62.10;;;;;;4991568;28;20186;-70
2023/07/12 11:41:17;;;;;;;1999.90;999.90;;;25.30;58.70;;;;;;4990743;28;20427;-69
2023/07/12 11:43:43;;;;;;;1999.90;999.90;;;25.40;56.40;;;;;;4990653;28;20456;-70
2023/07/12 11:46:18;;;;;;;1999.90;999.90;;;25.10;60.30;;;;;;4991143;28;20427;-69
2023/07/12 11:48:54;;;;;;;1999.90;999.90;;;24.80;63.90;;;;;;4991429;28;20181;-69
2023/07/12 11:51:27;;;;;;;1999.90;999.90;;;24.60;67.60;;;;;;4991304;28;20839;-69
2023/07/12 11:53:57;;;;;;;1999.90;999.90;;;24.50;65.40;;;;;;4991589;28;20395;-70
2023/07/12 11:56:24;;;;;;;1999.90;999.90;;;24.30;61.90;;;;;;4990783;28;20449;-70
2023/07/12 11:58:49;;;;;;;1999.90;999.90;;;24.30;65.60;;;;;;4990709;28;20414;-69
2023/07/12 12:01:17;;;;;;;1999.90;999.90;;;24.20;67.00;;;;;;4991254;28;20419;-70
2023/07/12 12:03:46;;;;;;;1999.90;999.90;;;24.10;66.40;;;;;;4990818;28;20201;-70
2023/07/12 12:06:13;;;;;;;1999.90;999.90;;;23.90;66.20;;;;;;4990685;28;20752;-69
2023/07/12 12:08:49;;;;;;;1999.90;999.90;;;24.00;62.40;;;;;;4991273;28;20434;-70